sensor_id;sensor_type;location;lat;lon;timestamp;pressure;altitude;pressure_sealevel;temperature;humidity
30463;BME280;17256;43.618;25.336;2023-03-04T08:33:21;100721.78;;;10.15;100.00
30463;BME280;17256;43.618;25.336;2023-03-04T08:35:55;100891.06;;;11.37;100.00
30463;BME280;17256;43.618;25.336;2023-03-04T09:28:37;100840.13;;;11.91;100.00
30463;BME280;17256;43.618;25.336;2023-03-04T09:31:13;100415.56;;;9.43;100.00
30463;BME280;17256;43.618;25.336;2023-03-04T09:34:04;100830.75;;;11.85;100.00
30463;BME280;17256;43.618;25.336;2023-03-04T09:38:01;100821.75;;;12.05;100.00
30463;BME280;17256;43.618;25.336;2023-03-04T11:41:39;100478.84;;;12.75;88.85
30463;BME280;17256;43.618;25.336;2023-03-04T11:45:29;100317.22;;;11.64;91.87
30463;BME280;17256;43.618;25.336;2023-03-04T11:54:15;100629.16;;;13.62;92.64
30463;BME280;17256;43.618;25.336;2023-03-04T12:10:29;100355.47;;;13.15;89.04
30463;BME280;17256;43.618;25.336;2023-03-04T12:14:25;100611.38;;;14.84;80.48
30463;BME280;17256;43.618;25.336;2023-03-04T17:29:26;100131.88;;;8.42;100.00
30463;BME280;17256;43.618;25.336;2023-03-04T17:32:07;100132.38;;;8.46;100.00
30463;BME280;17256;43.618;25.336;2023-03-04T17:35:13;100010.78;;;7.63;100.00
30463;BME280;17256;43.618;25.336;2023-03-04T17:38:04;100156.34;;;8.44;100.00
30463;BME280;17256;43.618;25.336;2023-03-04T17:47:39;100153.13;;;8.40;100.00
30463;BME280;17256;43.618;25.336;2023-03-04T17:51:08;100004.66;;;7.61;100.00
30463;BME280;17256;43.618;25.336;2023-03-04T17:54:08;100172.66;;;8.58;100.00
30463;BME280;17256;43.618;25.336;2023-03-04T17:57:17;100026.88;;;7.72;100.00
30463;BME280;17256;43.618;25.336;2023-03-04T18:00:31;100385.63;;;9.98;100.00
30463;BME280;17256;43.618;25.336;2023-03-04T18:03:54;100273.31;;;9.27;100.00
30463;BME280;17256;43.618;25.336;2023-03-04T18:07:12;99939.59;;;7.07;100.00
30463;BME280;17256;43.618;25.336;2023-03-04T18:10:10;100055.50;;;7.77;100.00
30463;BME280;17256;43.618;25.336;2023-03-04T18:13:13;100388.00;;;9.79;100.00
30463;BME280;17256;43.618;25.336;2023-03-04T18:16:29;100052.38;;;7.80;100.00
30463;BME280;17256;43.618;25.336;2023-03-04T18:19:45;100027.16;;;7.63;100.00
30463;BME280;17256;43.618;25.336;2023-03-04T18:26:57;100045.66;;;7.61;100.00
30463;BME280;17256;43.618;25.336;2023-03-04T18:30:12;100392.16;;;9.69;100.00
30463;BME280;17256;43.618;25.336;2023-03-04T18:33:17;100121.84;;;8.07;100.00
30463;BME280;17256;43.618;25.336;2023-03-04T18:36:35;100179.53;;;8.48;100.00
30463;BME280;17256;43.618;25.336;2023-03-04T18:40:00;100034.66;;;7.54;100.00
30463;BME280;17256;43.618;25.336;2023-03-04T18:43:31;100245.78;;;8.86;100.00
30463;BME280;17256;43.618;25.336;2023-03-04T18:47:14;100394.63;;;9.64;100.00
30463;BME280;17256;43.618;25.336;2023-03-04T18:50:55;100078.94;;;7.86;100.00
30463;BME280;17256;43.618;25.336;2023-03-04T18:54:41;99990.72;;;7.34;100.00
30463;BME280;17256;43.618;25.336;2023-03-04T18:58:10;100381.63;;;9.72;100.00
30463;BME280;17256;43.618;25.336;2023-03-04T19:01:57;100044.97;;;7.74;100.00
30463;BME280;17256;43.618;25.336;2023-03-04T19:12:28;100391.88;;;9.64;100.00
30463;BME280;17256;43.618;25.336;2023-03-04T19:15:41;100392.88;;;9.56;100.00
30463;BME280;17256;43.618;25.336;2023-03-04T19:19:31;100125.47;;;7.92;100.00
30463;BME280;17256;43.618;25.336;2023-03-04T19:23:13;100425.00;;;9.62;100.00
30463;BME280;17256;43.618;25.336;2023-03-04T19:26:24;100093.41;;;7.65;100.00
30463;BME280;17256;43.618;25.336;2023-03-04T19:29:33;100203.81;;;8.36;100.00
30463;BME280;17256;43.618;25.336;2023-03-04T19:33:16;100038.13;;;7.27;100.00
30463;BME280;17256;43.618;25.336;2023-03-04T19:36:38;99980.03;;;6.82;100.00
30463;BME280;17256;43.618;25.336;2023-03-04T19:40:08;100311.69;;;8.84;100.00
30463;BME280;17256;43.618;25.336;2023-03-04T19:43:12;100401.13;;;9.35;100.00
30463;BME280;17256;43.618;25.336;2023-03-04T19:46:12;100406.41;;;9.36;100.00
30463;BME280;17256;43.618;25.336;2023-03-04T19:49:12;100166.28;;;7.72;100.00
30463;BME280;17256;43.618;25.336;2023-03-04T19:52:13;100212.13;;;7.92;100.00
30463;BME280;17256;43.618;25.336;2023-03-04T19:56:05;100222.13;;;7.99;100.00
30463;BME280;17256;43.618;25.336;2023-03-04T19:58:59;100207.72;;;7.76;100.00
30463;BME280;17256;43.618;25.336;2023-03-04T21:04:09;100257.59;;;7.63;100.00
30463;BME280;17256;43.618;25.336;2023-03-04T21:07:01;100404.47;;;8.58;100.00
30463;BME280;17256;43.618;25.336;2023-03-04T21:11:17;100418.16;;;8.58;100.00
30463;BME280;17256;43.618;25.336;2023-03-04T21:14:30;100397.78;;;8.60;100.00
30463;BME280;17256;43.618;25.336;2023-03-04T21:28:11;100121.63;;;6.62;100.00
30463;BME280;17256;43.618;25.336;2023-03-04T21:31:48;100388.72;;;8.16;100.00
30463;BME280;17256;43.618;25.336;2023-03-04T21:35:42;100138.97;;;6.69;100.00
30463;BME280;17256;43.618;25.336;2023-03-04T21:47:35;100368.34;;;7.89;100.00
